Time;durP1;ratioP1;P1;durP2;ratioP2;P2;SDS_P1;SDS_P2;PMS_P1;PMS_P2;Temp;Humidity;BMP_temperature;BMP_pressure;BME280_temperature;BME280_humidity;BME280_pressure;Samples;Min_cycle;Max_cycle;Signal;HPM_P1;HPM_P2
2024/04/05 00:00:58;;;;;;;;;;;12.10;99.90;;;;;;2110216;28;19912;-77
2024/04/05 00:01:59;;;;;;;;;;;12.10;99.90;;;;;;2101357;28;19943;-71
2024/04/05 00:02:59;;;;;;;;;;;12.10;99.90;;;;;;2098279;28;20054;-75
2024/04/05 00:04:04;;;;;;;;;;;12.10;99.90;;;;;;2095013;28;19912;-75
2024/04/05 00:05:05;;;;;;;;;;;12.10;99.90;;;;;;2099650;28;19916;-75
2024/04/05 00:06:05;;;;;;;;;;;12.10;99.90;;;;;;2100687;28;19973;-75
2024/04/05 00:07:06;;;;;;;;;;;12.10;99.90;;;;;;2095541;28;20346;-75
2024/04/05 00:08:06;;;;;;;;;;;12.10;99.90;;;;;;2100880;28;19943;-76
2024/04/05 00:09:07;;;;;;;;;;;12.10;99.90;;;;;;2101089;28;19912;-74
2024/04/05 00:10:08;;;;;;;;;;;12.10;99.90;;;;;;2095708;28;19986;-77
2024/04/05 00:11:09;;;;;;;;;;;12.10;99.90;;;;;;2110314;28;19912;-76
2024/04/05 00:12:10;;;;;;;;;;;12.00;99.90;;;;;;2101537;28;19912;-76
2024/04/05 00:13:10;;;;;;;;;;;12.00;99.90;;;;;;2100526;28;19913;-75
2024/04/05 00:14:11;;;;;;;;;;;12.00;99.90;;;;;;2104565;28;20335;-76
2024/04/05 00:15:14;;;;;;;;;;;12.00;99.90;;;;;;2101084;28;19912;-75
2024/04/05 00:16:14;;;;;;;;;;;11.90;99.90;;;;;;2098273;28;20320;-75
2024/04/05 00:17:15;;;;;;;;;;;11.90;99.90;;;;;;2098401;28;19951;-75
2024/04/05 00:18:17;;;;;;;;;;;11.90;99.90;;;;;;2102849;28;20448;-75
2024/04/05 00:19:17;;;;;;;;;;;11.90;99.90;;;;;;2094177;28;19917;-75
2024/04/05 00:20:18;;;;;;;;;;;11.90;99.90;;;;;;2095180;28;20477;-75
2024/04/05 00:21:18;;;;;;;;;;;11.90;99.90;;;;;;2096592;28;19928;-74
2024/04/05 00:22:19;;;;;;;;;;;11.90;99.90;;;;;;2098153;28;20382;-75
2024/04/05 00:23:20;;;;;;;;;;;11.90;99.90;;;;;;2100676;28;19917;-77
2024/04/05 00:24:20;;;;;;;;;;;11.90;99.90;;;;;;2095039;28;19969;-77
2024/04/05 00:25:21;;;;;;;;;;;11.90;99.90;;;;;;2095105;28;19917;-76
2024/04/05 00:26:21;;;;;;;;;;;11.90;99.90;;;;;;2099795;28;20433;-75
2024/04/05 00:27:22;;;;;;;;;;;11.90;99.90;;;;;;2103587;28;20417;-74
2024/04/05 00:28:23;;;;;;;;;;;11.90;99.90;;;;;;2093516;28;19916;-75
2024/04/05 00:29:23;;;;;;;;;;;11.90;99.90;;;;;;2100854;28;19924;-75
2024/04/05 00:30:24;;;;;;;;;;;12.00;99.90;;;;;;2099350;28;19930;-76
2024/04/05 00:31:24;;;;;;;;;;;12.00;99.90;;;;;;2108622;28;19986;-75
2024/04/05 00:32:25;;;;;;;;;;;12.00;99.90;;;;;;2106201;28;19913;-74
2024/04/05 00:33:26;;;;;;;;;;;12.00;99.90;;;;;;2106019;28;20448;-74
2024/04/05 00:34:26;;;;;;;;;;;12.00;99.90;;;;;;2101770;28;19916;-75
2024/04/05 00:35:27;;;;;;;;;;;12.10;99.90;;;;;;2094896;28;19939;-75
2024/04/05 00:36:27;;;;;;;;;;;12.10;99.90;;;;;;2106723;28;19912;-77
2024/04/05 00:37:28;;;;;;;;;;;12.10;99.90;;;;;;2100419;28;19912;-77
2024/04/05 00:38:28;;;;;;;;;;;12.10;99.90;;;;;;2104791;28;19920;-75
2024/04/05 00:39:29;;;;;;;;;;;12.10;99.90;;;;;;2106722;28;20015;-74
2024/04/05 00:40:29;;;;;;;;;;;12.10;99.90;;;;;;2104327;28;20339;-75
2024/04/05 00:41:29;;;;;;;;;;;12.10;99.90;;;;;;2099315;28;19912;-76
2024/04/05 00:42:30;;;;;;;;;;;12.10;99.90;;;;;;2106161;28;19916;-74
2024/04/05 00:43:30;;;;;;;;;;;12.10;99.90;;;;;;2105893;28;20057;-75
2024/04/05 00:44:31;;;;;;;;;;;12.10;99.90;;;;;;2094646;28;19993;-75
2024/04/05 00:45:31;;;;;;;;;;;12.10;99.90;;;;;;2093330;28;20399;-75
2024/04/05 00:46:34;;;;;;;;;;;12.10;99.90;;;;;;2093770;28;19908;-74
2024/04/05 00:47:35;;;;;;;;;;;12.10;99.90;;;;;;2101167;28;19924;-76
2024/04/05 00:48:36;;;;;;;;;;;12.10;99.90;;;;;;2094906;28;19912;-75
2024/04/05 00:49:37;;;;;;;;;;;12.10;99.90;;;;;;2104096;28;19959;-76
2024/04/05 00:50:37;;;;;;;;;;;12.10;99.90;;;;;;2105861;28;20285;-76
2024/04/05 00:51:38;;;;;;;;;;;12.00;99.90;;;;;;2098539;28;19918;-76
2024/04/05 00:52:39;;;;;;;;;;;12.00;99.90;;;;;;2102057;28;19917;-76
2024/04/05 00:53:40;;;;;;;;;;;12.00;99.90;;;;;;2102551;28;19912;-75
2024/04/05 00:54:41;;;;;;;;;;;11.90;99.90;;;;;;2094220;28;20001;-77
2024/04/05 00:55:42;;;;;;;;;;;12.00;99.90;;;;;;2097022;28;19912;-76
2024/04/05 00:56:43;;;;;;;;;;;11.90;99.90;;;;;;2095855;28;19994;-76
2024/04/05 00:57:43;;;;;;;;;;;11.90;99.90;;;;;;2094587;28;20532;-75
2024/04/05 00:58:44;;;;;;;;;;;11.80;99.90;;;;;;2111181;28;20381;-76
2024/04/05 00:59:45;;;;;;;;;;;11.80;99.90;;;;;;2106435;28;20010;-76
2024/04/05 01:00:45;;;;;;;;;;;11.70;99.90;;;;;;2102951;28;20541;-76
2024/04/05 01:01:46;;;;;;;;;;;11.70;99.90;;;;;;2106342;28;19912;-75
2024/04/05 01:02:46;;;;;;;;;;;11.70;99.90;;;;;;2106921;28;19915;-75
2024/04/05 01:03:47;;;;;;;;;;;11.60;99.90;;;;;;2101646;28;19961;-75
2024/04/05 01:04:47;;;;;;;;;;;11.60;99.90;;;;;;2101946;28;19916;-74
2024/04/05 01:05:48;;;;;;;;;;;11.50;99.90;;;;;;2106005;28;19911;-74
2024/04/05 01:06:49;;;;;;;;;;;11.50;99.90;;;;;;2102439;28;19916;-75
2024/04/05 01:07:50;;;;;;;;;;;11.40;99.90;;;;;;2109931;28;19919;-75
2024/04/05 01:08:51;;;;;;;;;;;11.40;99.90;;;;;;2100495;28;20402;-75
2024/04/05 01:09:51;;;;;;;;;;;11.40;99.90;;;;;;2098631;28;19924;-75
2024/04/05 01:10:52;;;;;;;;;;;11.40;99.90;;;;;;2095469;28;19971;-75
2024/04/05 01:11:56;;;;;;;;;;;11.40;99.90;;;;;;2102741;28;19961;-75
2024/04/05 01:12:57;;;;;;;;;;;11.30;99.90;;;;;;2101137;28;20040;-75
2024/04/05 01:13:57;;;;;;;;;;;11.30;99.90;;;;;;2094350;28;20398;-76
2024/04/05 01:14:58;;;;;;;;;;;11.40;99.90;;;;;;2097002;28;19951;-75
2024/04/05 01:16:00;;;;;;;;;;;11.40;99.90;;;;;;2090016;28;19917;-75
2024/04/05 01:17:01;;;;;;;;;;;11.40;99.90;;;;;;2084334;28;19920;-76
2024/04/05 01:18:02;;;;;;;;;;;11.40;99.90;;;;;;2102637;28;19920;-75
2024/04/05 01:19:03;;;;;;;;;;;11.40;99.90;;;;;;2105467;28;19916;-74
2024/04/05 01:20:04;;;;;;;;;;;11.50;99.90;;;;;;2101747;28;19955;-76
2024/04/05 01:21:05;;;;;;;;;;;11.50;99.90;;;;;;2096094;28;20476;-76
2024/04/05 01:22:06;;;;;;;;;;;11.60;99.90;;;;;;2094521;28;19920;-76
2024/04/05 01:23:07;;;;;;;;;;;11.60;99.90;;;;;;2093156;28;20598;-75
2024/04/05 01:24:08;;;;;;;;;;;11.60;99.90;;;;;;2093152;28;19924;-76
2024/04/05 01:25:09;;;;;;;;;;;11.60;99.90;;;;;;2101089;28;19923;-76
2024/04/05 01:26:09;;;;;;;;;;;11.60;99.90;;;;;;2092462;28;20012;-76
2024/04/05 01:27:10;;;;;;;;;;;11.50;99.90;;;;;;2103538;28;19954;-76
2024/04/05 01:28:11;;;;;;;;;;;11.50;99.90;;;;;;2099499;28;20015;-76
2024/04/05 01:29:12;;;;;;;;;;;11.50;99.90;;;;;;2100878;28;19920;-75
2024/04/05 01:30:12;;;;;;;;;;;11.50;99.90;;;;;;2101041;28;20416;-76
2024/04/05 01:31:13;;;;;;;;;;;11.50;99.90;;;;;;2092998;28;19951;-75
2024/04/05 01:32:13;;;;;;;;;;;11.50;99.90;;;;;;2096822;28;19916;-75
2024/04/05 01:33:14;;;;;;;;;;;11.50;99.90;;;;;;2095685;28;19916;-75
2024/04/05 01:34:14;;;;;;;;;;;11.50;99.90;;;;;;2098347;28;20006;-75
2024/04/05 01:35:15;;;;;;;;;;;11.50;99.90;;;;;;2093649;28;19913;-75
2024/04/05 01:36:15;;;;;;;;;;;11.50;99.90;;;;;;2091246;28;19917;-74
2024/04/05 01:37:16;;;;;;;;;;;11.50;99.90;;;;;;2095329;28;19919;-75
2024/04/05 01:38:17;;;;;;;;;;;11.50;99.90;;;;;;2096344;28;20010;-75
2024/04/05 01:39:18;;;;;;;;;;;11.50;99.90;;;;;;2100167;28;19920;-75
2024/04/05 01:40:18;;;;;;;;;;;11.50;99.90;;;;;;2083414;28;19989;-75
2024/04/05 01:41:19;;;;;;;;;;;11.50;99.90;;;;;;2083793;28;20304;-73
2024/04/05 01:42:20;;;;;;;;;;;11.40;99.90;;;;;;2100648;28;19924;-74
2024/04/05 01:43:20;;;;;;;;;;;11.40;99.90;;;;;;2092649;28;19916;-76
2024/04/05 01:44:21;;;;;;;;;;;11.40;99.90;;;;;;2093136;28;19917;-74
2024/04/05 01:45:21;;;;;;;;;;;11.40;99.90;;;;;;2102032;28;19916;-75
2024/04/05 01:46:22;;;;;;;;;;;11.40;99.90;;;;;;2100921;28;19913;-75
2024/04/05 01:47:22;;;;;;;;;;;11.40;99.90;;;;;;2100504;28;19912;-75
2024/04/05 01:48:23;;;;;;;;;;;11.40;99.90;;;;;;2100377;28;19912;-77
2024/04/05 01:49:23;;;;;;;;;;;11.40;99.90;;;;;;2096493;28;19922;-77
2024/04/05 01:50:24;;;;;;;;;;;11.50;99.90;;;;;;2100767;28;19959;-77
2024/04/05 01:51:24;;;;;;;;;;;11.50;99.90;;;;;;2100478;28;19963;-73
2024/04/05 01:52:25;;;;;;;;;;;11.50;99.90;;;;;;2092744;28;19920;-74
2024/04/05 01:53:25;;;;;;;;;;;11.50;99.90;;;;;;2100666;28;20330;-74
2024/04/05 01:54:26;;;;;;;;;;;11.50;99.90;;;;;;2100827;28;20096;-75
2024/04/05 01:55:26;;;;;;;;;;;11.50;99.90;;;;;;2093199;28;20291;-76
2024/04/05 01:56:28;;;;;;;;;;;11.60;99.90;;;;;;2099842;28;19935;-74
2024/04/05 01:57:28;;;;;;;;;;;11.50;99.90;;;;;;2087711;28;20392;-72
2024/04/05 01:58:30;;;;;;;;;;;11.50;99.90;;;;;;2094140;28;20011;-74
2024/04/05 01:59:31;;;;;;;;;;;11.50;99.90;;;;;;2098926;28;19913;-77
2024/04/05 02:00:31;;;;;;;;;;;11.50;99.90;;;;;;2100154;28;20001;-77
2024/04/05 02:01:33;;;;;;;;;;;11.50;99.90;;;;;;2098572;28;20403;-76
2024/04/05 02:02:34;;;;;;;;;;;11.50;99.90;;;;;;2094251;28;20154;-76
2024/04/05 02:03:34;;;;;;;;;;;11.50;99.90;;;;;;2099295;28;19912;-76
2024/04/05 02:04:34;;;;;;;;;;;11.50;99.90;;;;;;2099857;28;19916;-76
2024/04/05 02:05:35;;;;;;;;;;;11.50;99.90;;;;;;2100198;28;19951;-76
2024/04/05 02:06:36;;;;;;;;;;;11.50;99.90;;;;;;2103712;28;20412;-76
2024/04/05 02:07:36;;;;;;;;;;;11.40;99.90;;;;;;2093811;28;20323;-76
2024/04/05 02:08:37;;;;;;;;;;;11.50;99.90;;;;;;2103377;28;19982;-76
2024/04/05 02:09:37;;;;;;;;;;;11.50;99.90;;;;;;2095526;28;20374;-77
2024/04/05 02:10:38;;;;;;;;;;;11.50;99.90;;;;;;2096314;28;19916;-76
2024/04/05 02:11:38;;;;;;;;;;;11.50;99.90;;;;;;2098043;28;20346;-75
2024/04/05 02:12:39;;;;;;;;;;;11.50;99.90;;;;;;2099210;28;19951;-75
2024/04/05 02:13:39;;;;;;;;;;;11.50;99.90;;;;;;2094336;28;19962;-75
2024/04/05 02:14:39;;;;;;;;;;;11.50;99.90;;;;;;2097829;28;20018;-75
2024/04/05 02:15:44;;;;;;;;;;;11.50;99.90;;;;;;2100030;28;19916;-75
2024/04/05 02:16:44;;;;;;;;;;;11.50;99.90;;;;;;2100325;28;19916;-75
2024/04/05 02:17:45;;;;;;;;;;;11.50;99.90;;;;;;2096029;28;20286;-78
2024/04/05 02:18:46;;;;;;;;;;;11.60;99.90;;;;;;2094703;28;19913;-75
2024/04/05 02:19:46;;;;;;;;;;;11.60;99.90;;;;;;2093448;28;19917;-74
2024/04/05 02:20:53;;;;;;;;;;;11.50;99.90;;;;;;2095859;28;19920;-75
2024/04/05 02:21:54;;;;;;;;;;;11.60;99.90;;;;;;2093675;28;20032;-75
2024/04/05 02:22:54;;;;;;;;;;;11.60;99.90;;;;;;2100811;28;20394;-75
2024/04/05 02:23:55;;;;;;;;;;;11.50;99.90;;;;;;2098616;28;20020;-76
2024/04/05 02:24:55;;;;;;;;;;;11.50;99.90;;;;;;2096595;28;19916;-77
2024/04/05 02:25:56;;;;;;;;;;;11.50;99.90;;;;;;2094462;28;19923;-75
2024/04/05 02:26:56;;;;;;;;;;;11.50;99.90;;;;;;2099313;28;19916;-75
2024/04/05 02:27:57;;;;;;;;;;;11.50;99.90;;;;;;2102161;28;19915;-76
2024/04/05 02:28:57;;;;;;;;;;;11.50;99.90;;;;;;2096741;28;20008;-77
2024/04/05 02:29:58;;;;;;;;;;;11.50;99.90;;;;;;2096883;28;19948;-75
2024/04/05 02:31:00;;;;;;;;;;;11.40;99.90;;;;;;2092897;28;21181;-76
2024/04/05 02:32:01;;;;;;;;;;;11.40;99.90;;;;;;2099491;28;19912;-75
2024/04/05 02:33:01;;;;;;;;;;;11.40;99.90;;;;;;2093186;28;20345;-74
2024/04/05 02:34:03;;;;;;;;;;;11.50;99.90;;;;;;2100078;28;19917;-75
2024/04/05 02:35:05;;;;;;;;;;;11.40;99.90;;;;;;2100275;28;19916;-75
2024/04/05 02:36:05;;;;;;;;;;;11.40;99.90;;;;;;2096253;28;20012;-74
2024/04/05 02:37:06;;;;;;;;;;;11.40;99.90;;;;;;2100065;28;19959;-75
2024/04/05 02:38:07;;;;;;;;;;;11.40;99.90;;;;;;2100025;28;19941;-74
2024/04/05 02:39:07;;;;;;;;;;;11.30;99.90;;;;;;2093203;28;20017;-74
2024/04/05 02:40:08;;;;;;;;;;;11.30;99.90;;;;;;2099704;28;19960;-76
2024/04/05 02:41:09;;;;;;;;;;;11.30;99.90;;;;;;2103388;28;19939;-74
2024/04/05 02:42:09;;;;;;;;;;;11.30;99.90;;;;;;2100051;28;19915;-76
2024/04/05 02:43:10;;;;;;;;;;;11.30;99.90;;;;;;2091575;28;19947;-75
2024/04/05 02:44:10;;;;;;;;;;;11.30;99.90;;;;;;2100350;28;19963;-76
2024/04/05 02:45:11;;;;;;;;;;;11.30;99.90;;;;;;2104230;28;20692;-75
2024/04/05 02:46:11;;;;;;;;;;;11.30;99.90;;;;;;2093071;28;19931;-76
2024/04/05 02:47:12;;;;;;;;;;;11.30;99.90;;;;;;2099368;28;20108;-76
2024/04/05 02:48:13;;;;;;;;;;;11.30;99.90;;;;;;2100799;28;19918;-76
2024/04/05 02:49:13;;;;;;;;;;;11.30;99.90;;;;;;2092601;28;19944;-77
2024/04/05 02:50:14;;;;;;;;;;;11.30;99.90;;;;;;2098448;28;19916;-75
2024/04/05 02:51:14;;;;;;;;;;;11.30;99.90;;;;;;2100032;28;19922;-76
2024/04/05 02:52:15;;;;;;;;;;;11.30;99.90;;;;;;2093322;28;20014;-75
2024/04/05 02:53:15;;;;;;;;;;;11.30;99.90;;;;;;2098185;28;19986;-75
2024/04/05 02:54:15;;;;;;;;;;;11.20;99.90;;;;;;2100151;28;20349;-75
2024/04/05 02:55:16;;;;;;;;;;;11.20;99.90;;;;;;2096315;28;19923;-76
2024/04/05 02:56:17;;;;;;;;;;;11.20;99.90;;;;;;2097663;28;20337;-76
2024/04/05 02:57:17;;;;;;;;;;;11.20;99.90;;;;;;2099740;28;19964;-75
2024/04/05 02:58:18;;;;;;;;;;;11.20;99.90;;;;;;2095016;28;20264;-74
2024/04/05 02:59:19;;;;;;;;;;;11.20;99.90;;;;;;2098804;28;20294;-77
2024/04/05 03:00:19;;;;;;;;;;;11.20;99.90;;;;;;2099073;28;20176;-75
2024/04/05 03:01:20;;;;;;;;;;;11.20;99.90;;;;;;2099903;28;20340;-76
2024/04/05 03:02:21;;;;;;;;;;;11.10;99.90;;;;;;2093424;28;20001;-75
2024/04/05 03:03:24;;;;;;;;;;;11.20;99.90;;;;;;2092598;28;19921;-75
2024/04/05 03:04:24;;;;;;;;;;;11.10;99.90;;;;;;2099461;28;20435;-75
2024/04/05 03:05:25;;;;;;;;;;;11.10;99.90;;;;;;2094188;28;19950;-75
2024/04/05 03:06:25;;;;;;;;;;;11.10;99.90;;;;;;2096416;28;20394;-74
2024/04/05 03:07:26;;;;;;;;;;;11.10;99.90;;;;;;2099029;28;20011;-75
2024/04/05 03:08:26;;;;;;;;;;;11.10;99.90;;;;;;2094663;28;19916;-74
2024/04/05 03:09:27;;;;;;;;;;;11.10;99.90;;;;;;2096055;28;20006;-74
2024/04/05 03:10:29;;;;;;;;;;;11.10;99.90;;;;;;2102241;28;20019;-75
2024/04/05 03:11:30;;;;;;;;;;;11.10;99.90;;;;;;2097839;28;19920;-74
2024/04/05 03:12:30;;;;;;;;;;;11.10;99.90;;;;;;2101278;28;20246;-75
2024/04/05 03:13:31;;;;;;;;;;;11.10;99.90;;;;;;2097147;28;19923;-75
2024/04/05 03:14:31;;;;;;;;;;;11.10;99.90;;;;;;2101205;28;20006;-74
2024/04/05 03:15:32;;;;;;;;;;;11.10;99.90;;;;;;2095891;28;19987;-74
2024/04/05 03:16:33;;;;;;;;;;;11.10;99.90;;;;;;2095194;28;20335;-75
2024/04/05 03:17:34;;;;;;;;;;;11.00;99.90;;;;;;2093752;28;20958;-76
2024/04/05 03:18:34;;;;;;;;;;;11.00;99.90;;;;;;2099037;28;19947;-76
2024/04/05 03:19:35;;;;;;;;;;;11.10;99.90;;;;;;2095152;28;20449;-76
2024/04/05 03:20:35;;;;;;;;;;;11.10;99.90;;;;;;2096174;28;19956;-76
2024/04/05 03:21:35;;;;;;;;;;;11.10;99.90;;;;;;2099927;28;20324;-76
2024/04/05 03:22:36;;;;;;;;;;;11.00;99.90;;;;;;2101055;28;20045;-76
2024/04/05 03:23:36;;;;;;;;;;;11.00;99.90;;;;;;2095573;28;19952;-75
2024/04/05 03:24:37;;;;;;;;;;;11.00;99.90;;;;;;2101373;28;19908;-75
2024/04/05 03:25:38;;;;;;;;;;;10.90;99.90;;;;;;2099188;28;20452;-75
2024/04/05 03:26:39;;;;;;;;;;;10.90;99.90;;;;;;2093800;28;22654;-75
2024/04/05 03:27:39;;;;;;;;;;;10.80;99.90;;;;;;2100061;28;20393;-75
2024/04/05 03:28:40;;;;;;;;;;;10.80;99.90;;;;;;2097599;28;19916;-75
2024/04/05 03:29:40;;;;;;;;;;;10.70;99.90;;;;;;2094399;28;19939;-76
2024/04/05 03:30:41;;;;;;;;;;;10.70;99.90;;;;;;2092188;28;19924;-75
2024/04/05 03:31:41;;;;;;;;;;;10.70;99.90;;;;;;2090067;28;19922;-76
2024/04/05 03:32:42;;;;;;;;;;;10.60;99.90;;;;;;2103128;28;19959;-74
2024/04/05 03:33:42;;;;;;;;;;;10.60;99.90;;;;;;2099874;28;19916;-75
2024/04/05 03:34:45;;;;;;;;;;;10.60;99.90;;;;;;2097183;28;19916;-76
2024/04/05 03:35:46;;;;;;;;;;;10.60;99.90;;;;;;2103826;28;19916;-75
2024/04/05 03:36:46;;;;;;;;;;;10.60;99.90;;;;;;2104563;28;19965;-75
2024/04/05 03:37:48;;;;;;;;;;;10.60;99.90;;;;;;2108950;28;19915;-74
2024/04/05 03:38:50;;;;;;;;;;;10.50;99.90;;;;;;2108132;28;20514;-74
2024/04/05 03:39:54;;;;;;;;;;;10.50;99.90;;;;;;2105354;28;19912;-75
2024/04/05 03:40:54;;;;;;;;;;;10.50;99.90;;;;;;2101459;28;19948;-75
2024/04/05 03:41:55;;;;;;;;;;;10.50;99.90;;;;;;2101298;28;19985;-74
2024/04/05 03:42:55;;;;;;;;;;;10.40;99.90;;;;;;2096201;28;19917;-75
2024/04/05 03:43:56;;;;;;;;;;;10.40;99.90;;;;;;2105397;28;19916;-75
2024/04/05 03:44:56;;;;;;;;;;;10.40;99.90;;;;;;2104729;28;19916;-75
2024/04/05 03:45:57;;;;;;;;;;;10.30;99.90;;;;;;2101624;28;19966;-76
2024/04/05 03:46:57;;;;;;;;;;;10.30;99.90;;;;;;2091933;28;20359;-76
2024/04/05 03:47:58;;;;;;;;;;;10.20;99.90;;;;;;2091978;28;20383;-76
2024/04/05 03:48:58;;;;;;;;;;;10.20;99.90;;;;;;2094859;28;19919;-75
2024/04/05 03:49:59;;;;;;;;;;;10.20;99.90;;;;;;2100363;28;20415;-76
2024/04/05 03:50:59;;;;;;;;;;;10.20;99.90;;;;;;2100991;28;19916;-76
2024/04/05 03:52:00;;;;;;;;;;;10.10;99.90;;;;;;2098522;28;19931;-75
2024/04/05 03:53:01;;;;;;;;;;;10.10;99.90;;;;;;2100040;28;19916;-76
2024/04/05 03:54:03;;;;;;;;;;;10.10;99.90;;;;;;2100393;28;19921;-76
2024/04/05 03:55:06;;;;;;;;;;;10.00;99.90;;;;;;2103218;28;19912;-75
2024/04/05 03:56:07;;;;;;;;;;;10.00;99.90;;;;;;2106086;28;19916;-75
2024/04/05 03:57:07;;;;;;;;;;;10.00;99.90;;;;;;2107511;28;19912;-75
2024/04/05 03:58:08;;;;;;;;;;;9.90;99.90;;;;;;2098523;28;19912;-75
2024/04/05 03:59:08;;;;;;;;;;;9.90;99.90;;;;;;2102094;28;20343;-75
2024/04/05 04:00:09;;;;;;;;;;;9.90;99.90;;;;;;2097117;28;20147;-75
2024/04/05 04:01:13;;;;;;;;;;;9.90;99.90;;;;;;2103528;28;20006;-76
2024/04/05 04:02:13;;;;;;;;;;;9.90;99.90;;;;;;2100513;28;20347;-75
2024/04/05 04:03:26;;;;;;;;;;;9.80;99.90;;;;;;2096575;28;19970;-76
2024/04/05 04:04:28;;;;;;;;;;;9.80;99.90;;;;;;2088502;28;20386;-75
2024/04/05 04:05:28;;;;;;;;;;;9.80;99.90;;;;;;2092740;28;20286;-75
2024/04/05 04:06:29;;;;;;;;;;;9.90;99.90;;;;;;2100415;28;19937;-75
2024/04/05 04:07:29;;;;;;;;;;;9.90;99.90;;;;;;2097217;28;19916;-76
2024/04/05 04:08:30;;;;;;;;;;;9.80;99.90;;;;;;2100865;28;19916;-74
2024/04/05 04:09:31;;;;;;;;;;;9.80;99.90;;;;;;2101626;28;19955;-75
2024/04/05 04:10:32;;;;;;;;;;;9.80;99.90;;;;;;2093306;28;19924;-74
2024/04/05 04:11:33;;;;;;;;;;;9.80;99.90;;;;;;2092673;28;19916;-75
2024/04/05 04:12:34;;;;;;;;;;;9.80;99.90;;;;;;2084622;28;20032;-75
2024/04/05 04:13:34;;;;;;;;;;;9.80;99.90;;;;;;2105223;28;19912;-74
2024/04/05 04:14:35;;;;;;;;;;;9.80;99.90;;;;;;2092897;28;19989;-75
2024/04/05 04:15:36;;;;;;;;;;;9.80;99.90;;;;;;2100590;28;20007;-75
2024/04/05 04:16:37;;;;;;;;;;;9.80;99.90;;;;;;2101340;28;20305;-75
2024/04/05 04:17:38;;;;;;;;;;;9.80;99.90;;;;;;2093190;28;19912;-75
2024/04/05 04:18:39;;;;;;;;;;;9.70;99.90;;;;;;2095517;28;20110;-75
2024/04/05 04:19:39;;;;;;;;;;;9.70;99.90;;;;;;2100818;28;19965;-75
2024/04/05 04:20:40;;;;;;;;;;;9.70;99.90;;;;;;2094963;28;19927;-76
2024/04/05 04:21:41;;;;;;;;;;;9.60;99.90;;;;;;2103459;28;19916;-75
2024/04/05 04:22:42;;;;;;;;;;;9.60;99.90;;;;;;2104454;28;19973;-75
2024/04/05 04:23:43;;;;;;;;;;;9.60;99.90;;;;;;2095676;28;19965;-75
2024/04/05 04:24:44;;;;;;;;;;;9.60;99.90;;;;;;2104673;28;20366;-75
2024/04/05 04:25:45;;;;;;;;;;;9.60;99.90;;;;;;2103640;28;20011;-75
2024/04/05 04:26:46;;;;;;;;;;;9.70;99.90;;;;;;2096053;28;20292;-76
2024/04/05 04:27:48;;;;;;;;;;;9.60;99.90;;;;;;2097964;28;19950;-75
2024/04/05 04:28:49;;;;;;;;;;;9.70;99.90;;;;;;2095083;28;19957;-75
2024/04/05 04:29:49;;;;;;;;;;;9.70;99.90;;;;;;2102132;28;19977;-74
2024/04/05 04:30:50;;;;;;;;;;;9.70;99.90;;;;;;2096588;28;20135;-74
2024/04/05 04:31:50;;;;;;;;;;;9.70;99.90;;;;;;2093958;28;19917;-76
2024/04/05 04:32:51;;;;;;;;;;;9.70;99.90;;;;;;2098336;28;20271;-74
2024/04/05 04:33:52;;;;;;;;;;;9.80;99.90;;;;;;2093913;28;19923;-74
2024/04/05 04:34:53;;;;;;;;;;;9.80;99.90;;;;;;2094476;28;19916;-74
2024/04/05 04:35:53;;;;;;;;;;;9.80;99.90;;;;;;2094836;28;20106;-76
2024/04/05 04:36:54;;;;;;;;;;;9.90;99.90;;;;;;2091958;28;19951;-75
2024/04/05 04:37:54;;;;;;;;;;;9.90;99.90;;;;;;2092583;28;20373;-75
2024/04/05 04:38:55;;;;;;;;;;;9.90;99.90;;;;;;2086157;28;19924;-74
2024/04/05 04:39:55;;;;;;;;;;;9.90;99.90;;;;;;2093823;28;19924;-75
2024/04/05 04:40:56;;;;;;;;;;;9.90;99.90;;;;;;2097714;28;20429;-75
2024/04/05 04:41:56;;;;;;;;;;;9.90;99.90;;;;;;2103447;28;19912;-75
2024/04/05 04:42:59;;;;;;;;;;;9.90;99.90;;;;;;2102896;28;20158;-75
2024/04/05 04:43:59;;;;;;;;;;;9.80;99.90;;;;;;2098704;28;20246;-76
2024/04/05 04:45:00;;;;;;;;;;;9.90;99.90;;;;;;2095679;28;19913;-75
2024/04/05 04:46:00;;;;;;;;;;;9.90;99.90;;;;;;2101126;28;20202;-76
2024/04/05 04:47:02;;;;;;;;;;;9.90;99.90;;;;;;2097999;28;20057;-76
2024/04/05 04:48:02;;;;;;;;;;;9.90;99.90;;;;;;2089261;28;20334;-76
2024/04/05 04:49:03;;;;;;;;;;;9.90;99.90;;;;;;2104237;28;19938;-74
2024/04/05 04:50:04;;;;;;;;;;;9.90;99.90;;;;;;2100483;28;20339;-77
2024/04/05 04:51:05;;;;;;;;;;;9.90;99.90;;;;;;2096286;28;19925;-74
2024/04/05 04:52:05;;;;;;;;;;;9.90;99.90;;;;;;2101403;28;19927;-74
2024/04/05 04:53:06;;;;;;;;;;;9.90;99.90;;;;;;2099788;28;20413;-75
2024/04/05 04:54:06;;;;;;;;;;;9.90;99.90;;;;;;2093068;28;20484;-75
2024/04/05 04:55:10;;;;;;;;;;;9.90;99.90;;;;;;2100630;28;19947;-77
2024/04/05 04:56:12;;;;;;;;;;;10.00;99.90;;;;;;2099792;28;19912;-75
2024/04/05 04:57:13;;;;;;;;;;;10.00;99.90;;;;;;2096808;28;19917;-75
2024/04/05 04:58:17;;;;;;;;;;;10.00;99.90;;;;;;2099226;28;20133;-75
2024/04/05 04:59:18;;;;;;;;;;;10.10;99.90;;;;;;2100516;28;19912;-76
2024/04/05 05:00:19;;;;;;;;;;;10.10;99.90;;;;;;2096584;28;20007;-76
2024/04/05 05:01:19;;;;;;;;;;;10.10;99.90;;;;;;2098994;28;19920;-74
2024/04/05 05:02:20;;;;;;;;;;;10.20;99.90;;;;;;2101990;28;19916;-75
2024/04/05 05:03:20;;;;;;;;;;;10.20;99.90;;;;;;2096440;28;20500;-74
2024/04/05 05:04:21;;;;;;;;;;;10.20;99.90;;;;;;2099591;28;19955;-74
2024/04/05 05:05:21;;;;;;;;;;;10.30;99.90;;;;;;2101409;28;19916;-75
2024/04/05 05:06:22;;;;;;;;;;;10.40;99.90;;;;;;2096205;28;19963;-74
2024/04/05 05:07:22;;;;;;;;;;;10.40;99.90;;;;;;2100887;28;19967;-74
2024/04/05 05:08:23;;;;;;;;;;;10.50;99.90;;;;;;2103867;28;20049;-73
2024/04/05 05:09:26;;;;;;;;;;;10.60;99.90;;;;;;2106284;28;19988;-75
2024/04/05 05:10:29;;;;;;;;;;;10.60;99.90;;;;;;2107846;28;19923;-75
2024/04/05 05:11:33;;;;;;;;;;;10.70;99.90;;;;;;2101962;28;19927;-76
2024/04/05 05:12:33;;;;;;;;;;;10.80;99.90;;;;;;2097315;28;20550;-73
2024/04/05 05:13:34;;;;;;;;;;;10.90;99.90;;;;;;2097635;28;19921;-73
2024/04/05 05:14:34;;;;;;;;;;;11.00;99.90;;;;;;2108032;28;19912;-74
2024/04/05 05:15:35;;;;;;;;;;;11.10;99.90;;;;;;2101837;28;19917;-74
2024/04/05 05:16:39;;;;;;;;;;;11.30;99.90;;;;;;2099218;28;19920;-75
2024/04/05 05:17:39;;;;;;;;;;;11.50;99.90;;;;;;2102868;28;19919;-73
2024/04/05 05:18:39;;;;;;;;;;;11.70;99.90;;;;;;2101857;28;19912;-73
2024/04/05 05:19:40;;;;;;;;;;;11.90;99.90;;;;;;2099950;28;19922;-75
2024/04/05 05:20:44;;;;;;;;;;;12.10;99.90;;;;;;2099981;28;19916;-75
2024/04/05 05:21:45;;;;;;;;;;;12.30;99.90;;;;;;2104969;28;19912;-74
2024/04/05 05:22:45;;;;;;;;;;;12.40;99.90;;;;;;2104627;28;19923;-75
2024/04/05 05:23:46;;;;;;;;;;;12.50;99.90;;;;;;2092903;28;20333;-77
2024/04/05 05:24:47;;;;;;;;;;;12.50;99.90;;;;;;2099542;28;20012;-79
2024/04/05 05:25:47;;;;;;;;;;;12.50;99.90;;;;;;2099696;28;19962;-76
2024/04/05 05:26:48;;;;;;;;;;;12.50;99.90;;;;;;2104443;28;19919;-74
2024/04/05 05:27:52;;;;;;;;;;;12.50;99.90;;;;;;2101343;28;19917;-77
2024/04/05 05:28:52;;;;;;;;;;;12.50;99.90;;;;;;2100459;28;19911;-73
2024/04/05 05:29:53;;;;;;;;;;;12.50;99.90;;;;;;2099890;28;19954;-73
2024/04/05 05:30:53;;;;;;;;;;;12.40;99.90;;;;;;2103421;28;19973;-73
2024/04/05 05:31:53;;;;;;;;;;;12.30;99.90;;;;;;2106599;28;19992;-75
2024/04/05 05:32:56;;;;;;;;;;;12.30;99.90;;;;;;2103700;28;19915;-76
2024/04/05 05:33:57;;;;;;;;;;;12.20;99.90;;;;;;2103508;28;19916;-75
2024/04/05 05:34:57;;;;;;;;;;;12.10;99.90;;;;;;2098685;28;20361;-75
2024/04/05 05:35:58;;;;;;;;;;;12.10;99.90;;;;;;2100359;28;19922;-75
2024/04/05 05:36:58;;;;;;;;;;;12.00;99.90;;;;;;2099444;28;19916;-74
2024/04/05 05:37:59;;;;;;;;;;;12.00;99.90;;;;;;2099132;28;19913;-76
2024/04/05 05:39:01;;;;;;;;;;;11.90;99.90;;;;;;2103545;28;19975;-75
2024/04/05 05:40:01;;;;;;;;;;;12.00;99.90;;;;;;2096398;28;20330;-74
2024/04/05 05:41:02;;;;;;;;;;;12.00;99.90;;;;;;2096576;28;20014;-72
2024/04/05 05:42:03;;;;;;;;;;;12.00;99.90;;;;;;2100143;28;20346;-72
2024/04/05 05:43:03;;;;;;;;;;;12.00;99.90;;;;;;2095655;28;19924;-72
2024/04/05 05:44:04;;;;;;;;;;;12.00;99.90;;;;;;2097436;28;19999;-72
2024/04/05 05:45:05;;;;;;;;;;;12.10;99.90;;;;;;2098647;28;19912;-70
2024/04/05 05:46:06;;;;;;;;;;;12.10;99.90;;;;;;2097724;28;19917;-73
2024/04/05 05:47:06;;;;;;;;;;;12.10;99.90;;;;;;2099974;28;20550;-77
2024/04/05 05:48:07;;;;;;;;;;;12.10;99.90;;;;;;2096496;28;19917;-72
2024/04/05 05:49:08;;;;;;;;;;;12.20;99.90;;;;;;2100076;28;19912;-74
2024/04/05 05:50:09;;;;;;;;;;;12.20;99.90;;;;;;2100845;28;19919;-74
2024/04/05 05:51:09;;;;;;;;;;;12.30;99.90;;;;;;2096767;28;19920;-76
2024/04/05 05:52:10;;;;;;;;;;;12.30;99.90;;;;;;2100906;28;19943;-76
2024/04/05 05:53:10;;;;;;;;;;;12.40;99.90;;;;;;2096740;28;19919;-75
2024/04/05 05:54:12;;;;;;;;;;;12.40;99.90;;;;;;2096039;28;19932;-76
2024/04/05 05:55:12;;;;;;;;;;;12.50;99.90;;;;;;2099569;28;19922;-75